sensor_id;sensor_type;location;lat;lon;timestamp;P1;durP1;ratioP1;P2;durP2;ratioP2
15693;SDS011;7947;48.834;9.132;2024-03-23T00:55:23;6.10;;;2.43;;
15693;SDS011;7947;48.834;9.132;2024-03-23T00:58:26;3.88;;;2.53;;
15693;SDS011;7947;48.834;9.132;2024-03-23T01:01:30;6.00;;;2.55;;
15693;SDS011;7947;48.834;9.132;2024-03-23T01:04:32;3.87;;;2.30;;
15693;SDS011;7947;48.834;9.132;2024-03-23T01:07:35;4.60;;;2.57;;
15693;SDS011;7947;48.834;9.132;2024-03-23T01:10:37;2.88;;;2.05;;
15693;SDS011;7947;48.834;9.132;2024-03-23T01:13:40;6.20;;;2.40;;
15693;SDS011;7947;48.834;9.132;2024-03-23T01:16:44;2.57;;;1.90;;
15693;SDS011;7947;48.834;9.132;2024-03-23T01:19:46;4.63;;;2.60;;
15693;SDS011;7947;48.834;9.132;2024-03-23T01:22:49;6.15;;;2.50;;
15693;SDS011;7947;48.834;9.132;2024-03-23T01:25:52;3.63;;;2.03;;
15693;SDS011;7947;48.834;9.132;2024-03-23T01:28:54;2.45;;;2.25;;
15693;SDS011;7947;48.834;9.132;2024-03-23T01:31:58;3.67;;;2.35;;
15693;SDS011;7947;48.834;9.132;2024-03-23T01:35:00;2.67;;;1.70;;
15693;SDS011;7947;48.834;9.132;2024-03-23T01:38:03;2.42;;;1.80;;
15693;SDS011;7947;48.834;9.132;2024-03-23T01:41:05;3.97;;;1.92;;
15693;SDS011;7947;48.834;9.132;2024-03-23T01:44:08;4.50;;;2.20;;
15693;SDS011;7947;48.834;9.132;2024-03-23T01:47:12;2.10;;;1.63;;
15693;SDS011;7947;48.834;9.132;2024-03-23T01:50:14;3.63;;;1.92;;
15693;SDS011;7947;48.834;9.132;2024-03-23T01:53:18;2.03;;;1.52;;
15693;SDS011;7947;48.834;9.132;2024-03-23T01:56:22;5.88;;;1.67;;
15693;SDS011;7947;48.834;9.132;2024-03-23T01:59:24;2.83;;;1.77;;
15693;SDS011;7947;48.834;9.132;2024-03-23T02:02:29;2.58;;;1.65;;
15693;SDS011;7947;48.834;9.132;2024-03-23T02:05:31;2.78;;;1.60;;
15693;SDS011;7947;48.834;9.132;2024-03-23T02:08:34;2.45;;;1.27;;
15693;SDS011;7947;48.834;9.132;2024-03-23T02:11:36;1.77;;;1.48;;
15693;SDS011;7947;48.834;9.132;2024-03-23T02:14:39;2.10;;;1.10;;
15693;SDS011;7947;48.834;9.132;2024-03-23T02:17:43;2.05;;;1.48;;
15693;SDS011;7947;48.834;9.132;2024-03-23T02:20:46;2.67;;;1.40;;
15693;SDS011;7947;48.834;9.132;2024-03-23T02:23:51;1.05;;;0.95;;
15693;SDS011;7947;48.834;9.132;2024-03-23T02:26:54;3.20;;;1.70;;
15693;SDS011;7947;48.834;9.132;2024-03-23T02:29:56;3.53;;;1.30;;
15693;SDS011;7947;48.834;9.132;2024-03-23T02:33:00;2.55;;;1.33;;
15693;SDS011;7947;48.834;9.132;2024-03-23T02:36:02;1.73;;;1.50;;
15693;SDS011;7947;48.834;9.132;2024-03-23T02:39:07;1.65;;;1.25;;
15693;SDS011;7947;48.834;9.132;2024-03-23T02:42:09;3.50;;;1.63;;
15693;SDS011;7947;48.834;9.132;2024-03-23T02:45:12;3.08;;;1.30;;
15693;SDS011;7947;48.834;9.132;2024-03-23T02:48:13;3.33;;;1.80;;
15693;SDS011;7947;48.834;9.132;2024-03-23T02:51:17;2.55;;;2.05;;
15693;SDS011;7947;48.834;9.132;2024-03-23T02:54:20;1.45;;;1.25;;
15693;SDS011;7947;48.834;9.132;2024-03-23T02:57:22;4.03;;;1.55;;
15693;SDS011;7947;48.834;9.132;2024-03-23T03:00:24;1.70;;;1.38;;
15693;SDS011;7947;48.834;9.132;2024-03-23T03:03:27;4.47;;;1.30;;
15693;SDS011;7947;48.834;9.132;2024-03-23T03:06:31;3.03;;;1.40;;
15693;SDS011;7947;48.834;9.132;2024-03-23T03:09:35;3.92;;;1.60;;
15693;SDS011;7947;48.834;9.132;2024-03-23T03:12:39;5.68;;;1.55;;
15693;SDS011;7947;48.834;9.132;2024-03-23T03:15:42;1.77;;;1.35;;
15693;SDS011;7947;48.834;9.132;2024-03-23T03:18:45;2.75;;;1.50;;
15693;SDS011;7947;48.834;9.132;2024-03-23T03:21:48;2.55;;;1.60;;
15693;SDS011;7947;48.834;9.132;2024-03-23T03:24:52;3.25;;;1.40;;
15693;SDS011;7947;48.834;9.132;2024-03-23T03:27:56;3.40;;;1.70;;
15693;SDS011;7947;48.834;9.132;2024-03-23T03:31:00;3.65;;;1.60;;
15693;SDS011;7947;48.834;9.132;2024-03-23T03:34:03;2.83;;;1.65;;
15693;SDS011;7947;48.834;9.132;2024-03-23T03:37:05;1.70;;;1.42;;
15693;SDS011;7947;48.834;9.132;2024-03-23T03:40:11;2.45;;;1.70;;
15693;SDS011;7947;48.834;9.132;2024-03-23T03:43:13;2.97;;;1.73;;
15693;SDS011;7947;48.834;9.132;2024-03-23T03:46:16;2.53;;;1.50;;
15693;SDS011;7947;48.834;9.132;2024-03-23T03:49:18;2.88;;;1.85;;
15693;SDS011;7947;48.834;9.132;2024-03-23T03:52:21;3.50;;;1.70;;
15693;SDS011;7947;48.834;9.132;2024-03-23T03:55:25;2.17;;;1.65;;
15693;SDS011;7947;48.834;9.132;2024-03-23T03:58:28;2.03;;;1.75;;
15693;SDS011;7947;48.834;9.132;2024-03-23T04:01:31;1.70;;;1.33;;
15693;SDS011;7947;48.834;9.132;2024-03-23T04:04:32;2.40;;;1.50;;
15693;SDS011;7947;48.834;9.132;2024-03-23T04:07:35;2.45;;;1.60;;
15693;SDS011;7947;48.834;9.132;2024-03-23T04:10:40;2.45;;;1.75;;
15693;SDS011;7947;48.834;9.132;2024-03-23T04:13:42;2.05;;;1.40;;
15693;SDS011;7947;48.834;9.132;2024-03-23T04:16:45;1.63;;;1.33;;
15693;SDS011;7947;48.834;9.132;2024-03-23T04:19:47;3.35;;;1.45;;
15693;SDS011;7947;48.834;9.132;2024-03-23T04:22:53;1.58;;;1.48;;
15693;SDS011;7947;48.834;9.132;2024-03-23T04:25:57;2.17;;;1.42;;
15693;SDS011;7947;48.834;9.132;2024-03-23T04:29:04;2.42;;;1.88;;
15693;SDS011;7947;48.834;9.132;2024-03-23T04:32:07;3.45;;;2.10;;
15693;SDS011;7947;48.834;9.132;2024-03-23T04:35:09;4.40;;;1.77;;
15693;SDS011;7947;48.834;9.132;2024-03-23T04:38:12;2.88;;;2.03;;
15693;SDS011;7947;48.834;9.132;2024-03-23T04:41:16;8.18;;;2.50;;
15693;SDS011;7947;48.834;9.132;2024-03-23T04:44:19;4.65;;;2.40;;
15693;SDS011;7947;48.834;9.132;2024-03-23T04:47:23;3.28;;;2.17;;
15693;SDS011;7947;48.834;9.132;2024-03-23T04:50:26;3.15;;;2.58;;
15693;SDS011;7947;48.834;9.132;2024-03-23T04:53:29;6.60;;;3.00;;
15693;SDS011;7947;48.834;9.132;2024-03-23T04:56:33;5.47;;;2.78;;
15693;SDS011;7947;48.834;9.132;2024-03-23T04:59:37;6.10;;;4.20;;
15693;SDS011;7947;48.834;9.132;2024-03-23T05:02:39;6.95;;;5.55;;
15693;SDS011;7947;48.834;9.132;2024-03-23T05:05:42;8.57;;;6.05;;
15693;SDS011;7947;48.834;9.132;2024-03-23T05:08:45;10.68;;;7.47;;
15693;SDS011;7947;48.834;9.132;2024-03-23T05:11:49;10.32;;;7.30;;
15693;SDS011;7947;48.834;9.132;2024-03-23T05:14:52;11.43;;;7.00;;
15693;SDS011;7947;48.834;9.132;2024-03-23T05:17:53;12.80;;;7.72;;
15693;SDS011;7947;48.834;9.132;2024-03-23T05:20:55;10.65;;;7.40;;
15693;SDS011;7947;48.834;9.132;2024-03-23T05:23:56;14.00;;;7.88;;
15693;SDS011;7947;48.834;9.132;2024-03-23T05:26:59;13.20;;;7.78;;
15693;SDS011;7947;48.834;9.132;2024-03-23T05:30:00;13.90;;;7.90;;
15693;SDS011;7947;48.834;9.132;2024-03-23T05:33:04;11.77;;;7.55;;
15693;SDS011;7947;48.834;9.132;2024-03-23T05:36:05;14.88;;;7.15;;
15693;SDS011;7947;48.834;9.132;2024-03-23T05:39:11;10.65;;;6.82;;
15693;SDS011;7947;48.834;9.132;2024-03-23T05:42:13;10.85;;;7.22;;
15693;SDS011;7947;48.834;9.132;2024-03-23T05:45:15;11.68;;;6.90;;
15693;SDS011;7947;48.834;9.132;2024-03-23T05:48:18;8.85;;;5.57;;
15693;SDS011;7947;48.834;9.132;2024-03-23T05:51:20;8.55;;;5.25;;
15693;SDS011;7947;48.834;9.132;2024-03-23T05:54:21;6.45;;;5.20;;
15693;SDS011;7947;48.834;9.132;2024-03-23T05:57:24;7.57;;;5.33;;
15693;SDS011;7947;48.834;9.132;2024-03-23T06:00:26;7.85;;;4.15;;
15693;SDS011;7947;48.834;9.132;2024-03-23T06:03:28;6.70;;;3.33;;
15693;SDS011;7947;48.834;9.132;2024-03-23T06:06:30;3.50;;;2.42;;
15693;SDS011;7947;48.834;9.132;2024-03-23T06:09:32;4.20;;;2.57;;
15693;SDS011;7947;48.834;9.132;2024-03-23T06:12:34;4.80;;;2.30;;
15693;SDS011;7947;48.834;9.132;2024-03-23T06:15:35;3.60;;;2.20;;
15693;SDS011;7947;48.834;9.132;2024-03-23T06:18:39;8.38;;;2.58;;
15693;SDS011;7947;48.834;9.132;2024-03-23T06:21:42;2.77;;;2.00;;
15693;SDS011;7947;48.834;9.132;2024-03-23T06:24:44;3.88;;;1.98;;
15693;SDS011;7947;48.834;9.132;2024-03-23T06:27:47;2.23;;;1.50;;
15693;SDS011;7947;48.834;9.132;2024-03-23T06:30:47;2.03;;;1.47;;
15693;SDS011;7947;48.834;9.132;2024-03-23T06:33:49;1.57;;;1.30;;
15693;SDS011;7947;48.834;9.132;2024-03-23T06:36:51;2.33;;;1.37;;
15693;SDS011;7947;48.834;9.132;2024-03-23T06:39:52;1.80;;;1.23;;
15693;SDS011;7947;48.834;9.132;2024-03-23T06:42:55;1.53;;;1.20;;
15693;SDS011;7947;48.834;9.132;2024-03-23T06:45:56;2.23;;;0.80;;
15693;SDS011;7947;48.834;9.132;2024-03-23T06:48:57;1.47;;;0.97;;
15693;SDS011;7947;48.834;9.132;2024-03-23T06:51:58;1.07;;;0.73;;
15693;SDS011;7947;48.834;9.132;2024-03-23T06:55:00;0.83;;;0.60;;
15693;SDS011;7947;48.834;9.132;2024-03-23T06:58:06;1.47;;;1.07;;
15693;SDS011;7947;48.834;9.132;2024-03-23T07:01:07;1.13;;;0.67;;
15693;SDS011;7947;48.834;9.132;2024-03-23T07:04:08;0.63;;;0.50;;
15693;SDS011;7947;48.834;9.132;2024-03-23T07:07:09;0.30;;;0.30;;
15693;SDS011;7947;48.834;9.132;2024-03-23T07:10:12;1.47;;;0.50;;
15693;SDS011;7947;48.834;9.132;2024-03-23T07:13:14;0.70;;;0.40;;
15693;SDS011;7947;48.834;9.132;2024-03-23T07:16:17;0.80;;;0.63;;
15693;SDS011;7947;48.834;9.132;2024-03-23T07:19:18;0.50;;;0.50;;
15693;SDS011;7947;48.834;9.132;2024-03-23T07:22:20;0.40;;;0.40;;
15693;SDS011;7947;48.834;9.132;2024-03-23T07:25:22;0.50;;;0.50;;
15693;SDS011;7947;48.834;9.132;2024-03-23T07:28:25;0.90;;;0.70;;
15693;SDS011;7947;48.834;9.132;2024-03-23T07:31:27;1.30;;;0.50;;
15693;SDS011;7947;48.834;9.132;2024-03-23T07:34:28;1.13;;;0.60;;
15693;SDS011;7947;48.834;9.132;2024-03-23T07:37:30;0.73;;;0.47;;
15693;SDS011;7947;48.834;9.132;2024-03-23T07:40:31;0.97;;;0.40;;
15693;SDS011;7947;48.834;9.132;2024-03-23T07:43:34;4.10;;;0.60;;
15693;SDS011;7947;48.834;9.132;2024-03-23T07:46:35;1.07;;;0.33;;
15693;SDS011;7947;48.834;9.132;2024-03-23T07:49:37;0.77;;;0.60;;
15693;SDS011;7947;48.834;9.132;2024-03-23T07:52:40;0.43;;;0.30;;
15693;SDS011;7947;48.834;9.132;2024-03-23T07:55:40;0.20;;;0.20;;
15693;SDS011;7947;48.834;9.132;2024-03-23T07:58:45;0.20;;;0.20;;
15693;SDS011;7947;48.834;9.132;2024-03-23T08:01:45;2.47;;;1.17;;
15693;SDS011;7947;48.834;9.132;2024-03-23T08:04:47;0.57;;;0.30;;
15693;SDS011;7947;48.834;9.132;2024-03-23T08:07:50;0.23;;;0.23;;
15693;SDS011;7947;48.834;9.132;2024-03-23T08:10:51;0.30;;;0.30;;
15693;SDS011;7947;48.834;9.132;2024-03-23T08:13:55;0.40;;;0.30;;
15693;SDS011;7947;48.834;9.132;2024-03-23T08:16:56;0.60;;;0.40;;
15693;SDS011;7947;48.834;9.132;2024-03-23T08:19:57;1.33;;;0.60;;
15693;SDS011;7947;48.834;9.132;2024-03-23T08:22:58;1.00;;;0.33;;
15693;SDS011;7947;48.834;9.132;2024-03-23T08:26:00;0.93;;;0.40;;
15693;SDS011;7947;48.834;9.132;2024-03-23T08:29:04;0.40;;;0.40;;
15693;SDS011;7947;48.834;9.132;2024-03-23T08:32:05;0.97;;;0.30;;
15693;SDS011;7947;48.834;9.132;2024-03-23T08:35:07;0.73;;;0.30;;
15693;SDS011;7947;48.834;9.132;2024-03-23T08:38:09;1.80;;;0.47;;
15693;SDS011;7947;48.834;9.132;2024-03-23T08:41:11;0.37;;;0.30;;
15693;SDS011;7947;48.834;9.132;2024-03-23T08:44:13;0.50;;;0.40;;
15693;SDS011;7947;48.834;9.132;2024-03-23T08:47:15;0.53;;;0.50;;
15693;SDS011;7947;48.834;9.132;2024-03-23T08:50:16;0.80;;;0.57;;
15693;SDS011;7947;48.834;9.132;2024-03-23T08:53:18;3.97;;;1.30;;
15693;SDS011;7947;48.834;9.132;2024-03-23T08:56:19;5.37;;;1.20;;
15693;SDS011;7947;48.834;9.132;2024-03-23T08:59:22;2.37;;;1.07;;
15693;SDS011;7947;48.834;9.132;2024-03-23T09:02:24;3.87;;;1.37;;
15693;SDS011;7947;48.834;9.132;2024-03-23T09:05:25;5.23;;;1.47;;
15693;SDS011;7947;48.834;9.132;2024-03-23T09:08:26;3.03;;;1.10;;
15693;SDS011;7947;48.834;9.132;2024-03-23T09:11:28;6.60;;;1.17;;
15693;SDS011;7947;48.834;9.132;2024-03-23T09:14:30;2.50;;;1.40;;
15693;SDS011;7947;48.834;9.132;2024-03-23T09:17:32;4.20;;;1.07;;
15693;SDS011;7947;48.834;9.132;2024-03-23T09:20:33;5.30;;;1.47;;
15693;SDS011;7947;48.834;9.132;2024-03-23T09:23:37;3.03;;;1.20;;
15693;SDS011;7947;48.834;9.132;2024-03-23T09:26:40;2.50;;;1.37;;
15693;SDS011;7947;48.834;9.132;2024-03-23T09:29:46;5.77;;;1.80;;
15693;SDS011;7947;48.834;9.132;2024-03-23T09:32:50;2.43;;;1.40;;
15693;SDS011;7947;48.834;9.132;2024-03-23T09:35:53;3.83;;;1.63;;
15693;SDS011;7947;48.834;9.132;2024-03-23T09:38:58;5.60;;;1.70;;
15693;SDS011;7947;48.834;9.132;2024-03-23T09:41:59;3.40;;;1.23;;
15693;SDS011;7947;48.834;9.132;2024-03-23T09:45:06;3.33;;;1.67;;
15693;SDS011;7947;48.834;9.132;2024-03-23T09:48:18;1.90;;;1.10;;
15693;SDS011;7947;48.834;9.132;2024-03-23T09:51:23;3.80;;;1.33;;
15693;SDS011;7947;48.834;9.132;2024-03-23T09:54:27;5.13;;;1.70;;
15693;SDS011;7947;48.834;9.132;2024-03-23T09:57:30;5.40;;;1.60;;
15693;SDS011;7947;48.834;9.132;2024-03-23T10:00:36;2.97;;;1.80;;
15693;SDS011;7947;48.834;9.132;2024-03-23T10:03:42;3.83;;;1.80;;
15693;SDS011;7947;48.834;9.132;2024-03-23T10:06:47;2.90;;;1.30;;
15693;SDS011;7947;48.834;9.132;2024-03-23T10:09:50;3.53;;;1.63;;
15693;SDS011;7947;48.834;9.132;2024-03-23T10:12:54;8.07;;;2.60;;
15693;SDS011;7947;48.834;9.132;2024-03-23T10:16:00;10.20;;;2.23;;
15693;SDS011;7947;48.834;9.132;2024-03-23T10:19:05;5.78;;;2.15;;
15693;SDS011;7947;48.834;9.132;2024-03-23T10:22:09;4.73;;;2.20;;
15693;SDS011;7947;48.834;9.132;2024-03-23T10:25:16;6.47;;;2.17;;
15693;SDS011;7947;48.834;9.132;2024-03-23T10:28:23;2.15;;;1.60;;
15693;SDS011;7947;48.834;9.132;2024-03-23T10:31:30;3.72;;;1.90;;
15693;SDS011;7947;48.834;9.132;2024-03-23T10:34:34;4.20;;;1.92;;
15693;SDS011;7947;48.834;9.132;2024-03-23T10:37:40;4.93;;;2.17;;
15693;SDS011;7947;48.834;9.132;2024-03-23T10:40:44;4.82;;;1.75;;
15693;SDS011;7947;48.834;9.132;2024-03-23T10:43:48;4.03;;;1.55;;
15693;SDS011;7947;48.834;9.132;2024-03-23T10:46:53;5.33;;;2.53;;
15693;SDS011;7947;48.834;9.132;2024-03-23T10:50:00;6.63;;;2.23;;
15693;SDS011;7947;48.834;9.132;2024-03-23T10:53:04;5.33;;;2.07;;
15693;SDS011;7947;48.834;9.132;2024-03-23T10:56:09;5.33;;;2.20;;
15693;SDS011;7947;48.834;9.132;2024-03-23T10:59:14;4.97;;;2.70;;
15693;SDS011;7947;48.834;9.132;2024-03-23T11:02:21;6.57;;;2.23;;
15693;SDS011;7947;48.834;9.132;2024-03-23T11:05:30;7.40;;;2.37;;
15693;SDS011;7947;48.834;9.132;2024-03-23T11:08:34;5.63;;;2.13;;
15693;SDS011;7947;48.834;9.132;2024-03-23T11:11:38;3.57;;;1.60;;
15693;SDS011;7947;48.834;9.132;2024-03-23T11:14:41;5.00;;;1.67;;
15693;SDS011;7947;48.834;9.132;2024-03-23T11:21:09;3.10;;;1.47;;
15693;SDS011;7947;48.834;9.132;2024-03-23T11:24:14;3.87;;;1.77;;
15693;SDS011;7947;48.834;9.132;2024-03-23T11:27:17;3.50;;;1.67;;
15693;SDS011;7947;48.834;9.132;2024-03-23T11:30:22;2.77;;;1.53;;
15693;SDS011;7947;48.834;9.132;2024-03-23T11:33:28;1.83;;;1.40;;
15693;SDS011;7947;48.834;9.132;2024-03-23T11:36:32;2.07;;;1.63;;
15693;SDS011;7947;48.834;9.132;2024-03-23T11:39:35;3.10;;;1.47;;
15693;SDS011;7947;48.834;9.132;2024-03-23T11:42:39;3.33;;;1.60;;
15693;SDS011;7947;48.834;9.132;2024-03-23T11:45:44;3.70;;;1.80;;
15693;SDS011;7947;48.834;9.132;2024-03-23T11:48:51;3.93;;;1.40;;
15693;SDS011;7947;48.834;9.132;2024-03-23T11:51:54;3.97;;;1.50;;
15693;SDS011;7947;48.834;9.132;2024-03-23T11:55:05;3.63;;;1.30;;
15693;SDS011;7947;48.834;9.132;2024-03-23T11:58:10;2.30;;;1.30;;
15693;SDS011;7947;48.834;9.132;2024-03-23T12:01:16;2.53;;;1.20;;
15693;SDS011;7947;48.834;9.132;2024-03-23T12:04:26;3.97;;;1.60;;
15693;SDS011;7947;48.834;9.132;2024-03-23T12:07:30;3.27;;;0.90;;
15693;SDS011;7947;48.834;9.132;2024-03-23T12:10:34;1.40;;;0.80;;
15693;SDS011;7947;48.834;9.132;2024-03-23T12:13:38;2.27;;;0.90;;
15693;SDS011;7947;48.834;9.132;2024-03-23T12:16:44;2.63;;;1.00;;
15693;SDS011;7947;48.834;9.132;2024-03-23T12:19:47;3.37;;;0.90;;
15693;SDS011;7947;48.834;9.132;2024-03-23T12:22:51;3.50;;;1.10;;
15693;SDS011;7947;48.834;9.132;2024-03-23T12:26:06;2.50;;;1.00;;
15693;SDS011;7947;48.834;9.132;2024-03-23T12:29:14;2.85;;;1.02;;
15693;SDS011;7947;48.834;9.132;2024-03-23T12:32:17;3.40;;;1.23;;
15693;SDS011;7947;48.834;9.132;2024-03-23T12:35:20;3.13;;;1.35;;
15693;SDS011;7947;48.834;9.132;2024-03-23T12:38:21;5.53;;;1.40;;
15693;SDS011;7947;48.834;9.132;2024-03-23T12:41:23;3.07;;;1.20;;
15693;SDS011;7947;48.834;9.132;2024-03-23T12:44:24;4.43;;;1.33;;
15693;SDS011;7947;48.834;9.132;2024-03-23T12:47:26;5.73;;;1.83;;
15693;SDS011;7947;48.834;9.132;2024-03-23T12:50:28;4.75;;;1.08;;
15693;SDS011;7947;48.834;9.132;2024-03-23T12:53:30;2.37;;;1.50;;
15693;SDS011;7947;48.834;9.132;2024-03-23T12:56:31;1.50;;;0.95;;
15693;SDS011;7947;48.834;9.132;2024-03-23T12:59:33;3.67;;;1.50;;
15693;SDS011;7947;48.834;9.132;2024-03-23T13:02:35;5.93;;;1.35;;
15693;SDS011;7947;48.834;9.132;2024-03-23T13:05:39;3.50;;;1.65;;
15693;SDS011;7947;48.834;9.132;2024-03-23T13:08:40;4.55;;;1.13;;
15693;SDS011;7947;48.834;9.132;2024-03-23T13:11:43;6.32;;;1.48;;
15693;SDS011;7947;48.834;9.132;2024-03-23T13:14:45;6.50;;;1.23;;
15693;SDS011;7947;48.834;9.132;2024-03-23T13:17:46;4.45;;;1.50;;
15693;SDS011;7947;48.834;9.132;2024-03-23T13:20:50;3.90;;;1.20;;
15693;SDS011;7947;48.834;9.132;2024-03-23T13:23:51;2.63;;;1.05;;
15693;SDS011;7947;48.834;9.132;2024-03-23T13:26:53;3.03;;;1.20;;
15693;SDS011;7947;48.834;9.132;2024-03-23T13:29:55;3.63;;;1.13;;
15693;SDS011;7947;48.834;9.132;2024-03-23T13:32:57;3.40;;;1.40;;
15693;SDS011;7947;48.834;9.132;2024-03-23T13:35:59;4.22;;;1.50;;
15693;SDS011;7947;48.834;9.132;2024-03-23T13:39:02;4.40;;;1.48;;
15693;SDS011;7947;48.834;9.132;2024-03-23T13:42:06;2.50;;;0.80;;
15693;SDS011;7947;48.834;9.132;2024-03-23T13:45:09;1.73;;;0.88;;
15693;SDS011;7947;48.834;9.132;2024-03-23T13:48:18;3.17;;;0.95;;
15693;SDS011;7947;48.834;9.132;2024-03-23T13:51:24;5.85;;;1.02;;
15693;SDS011;7947;48.834;9.132;2024-03-23T13:54:27;6.47;;;1.30;;
15693;SDS011;7947;48.834;9.132;2024-03-23T13:57:29;3.78;;;0.73;;
15693;SDS011;7947;48.834;9.132;2024-03-23T14:00:30;2.50;;;0.60;;
15693;SDS011;7947;48.834;9.132;2024-03-23T14:03:33;3.72;;;0.50;;
15693;SDS011;7947;48.834;9.132;2024-03-23T14:06:35;1.35;;;0.55;;
15693;SDS011;7947;48.834;9.132;2024-03-23T14:09:37;1.57;;;0.87;;
15693;SDS011;7947;48.834;9.132;2024-03-23T14:12:39;7.23;;;2.87;;
15693;SDS011;7947;48.834;9.132;2024-03-23T14:15:42;5.50;;;1.00;;
15693;SDS011;7947;48.834;9.132;2024-03-23T14:18:45;1.80;;;0.40;;
15693;SDS011;7947;48.834;9.132;2024-03-23T14:21:49;0.70;;;0.60;;
15693;SDS011;7947;48.834;9.132;2024-03-23T14:24:50;1.37;;;0.57;;
15693;SDS011;7947;48.834;9.132;2024-03-23T14:27:52;1.00;;;0.60;;
15693;SDS011;7947;48.834;9.132;2024-03-23T14:30:55;0.90;;;0.50;;
15693;SDS011;7947;48.834;9.132;2024-03-23T14:33:57;1.50;;;0.70;;
15693;SDS011;7947;48.834;9.132;2024-03-23T14:36:59;1.90;;;0.63;;
15693;SDS011;7947;48.834;9.132;2024-03-23T14:40:02;1.07;;;0.77;;
15693;SDS011;7947;48.834;9.132;2024-03-23T14:43:04;1.20;;;0.73;;
15693;SDS011;7947;48.834;9.132;2024-03-23T14:46:06;1.47;;;0.70;;
15693;SDS011;7947;48.834;9.132;2024-03-23T14:49:08;1.77;;;0.60;;
15693;SDS011;7947;48.834;9.132;2024-03-23T14:52:11;2.73;;;1.07;;
15693;SDS011;7947;48.834;9.132;2024-03-23T14:55:13;0.83;;;0.57;;
15693;SDS011;7947;48.834;9.132;2024-03-23T14:58:15;1.50;;;0.97;;
15693;SDS011;7947;48.834;9.132;2024-03-23T15:01:16;4.23;;;0.83;;
15693;SDS011;7947;48.834;9.132;2024-03-23T15:04:18;2.17;;;0.90;;
15693;SDS011;7947;48.834;9.132;2024-03-23T15:07:21;5.07;;;1.10;;
15693;SDS011;7947;48.834;9.132;2024-03-23T15:10:23;3.00;;;0.90;;
15693;SDS011;7947;48.834;9.132;2024-03-23T15:13:25;5.60;;;1.03;;
15693;SDS011;7947;48.834;9.132;2024-03-23T15:16:26;3.10;;;0.60;;
15693;SDS011;7947;48.834;9.132;2024-03-23T15:19:28;2.47;;;0.60;;
15693;SDS011;7947;48.834;9.132;2024-03-23T15:22:31;2.13;;;0.87;;
15693;SDS011;7947;48.834;9.132;2024-03-23T15:25:33;1.90;;;0.67;;
15693;SDS011;7947;48.834;9.132;2024-03-23T15:28:34;1.03;;;0.60;;
15693;SDS011;7947;48.834;9.132;2024-03-23T15:31:44;2.60;;;0.70;;
15693;SDS011;7947;48.834;9.132;2024-03-23T15:34:46;0.63;;;0.43;;
15693;SDS011;7947;48.834;9.132;2024-03-23T15:37:49;1.57;;;0.50;;
15693;SDS011;7947;48.834;9.132;2024-03-23T15:40:51;1.57;;;0.50;;
15693;SDS011;7947;48.834;9.132;2024-03-23T15:43:53;1.63;;;0.70;;
15693;SDS011;7947;48.834;9.132;2024-03-23T15:46:54;0.77;;;0.47;;
15693;SDS011;7947;48.834;9.132;2024-03-23T15:49:56;0.97;;;0.50;;
15693;SDS011;7947;48.834;9.132;2024-03-23T15:52:58;3.30;;;0.60;;
15693;SDS011;7947;48.834;9.132;2024-03-23T15:56:00;3.60;;;0.60;;
15693;SDS011;7947;48.834;9.132;2024-03-23T15:59:03;1.83;;;0.70;;
15693;SDS011;7947;48.834;9.132;2024-03-23T16:02:06;1.10;;;0.80;;
15693;SDS011;7947;48.834;9.132;2024-03-23T16:05:08;1.47;;;0.50;;
15693;SDS011;7947;48.834;9.132;2024-03-23T16:08:13;1.17;;;0.67;;
15693;SDS011;7947;48.834;9.132;2024-03-23T16:11:15;0.80;;;0.40;;
15693;SDS011;7947;48.834;9.132;2024-03-23T16:14:15;1.07;;;0.63;;
15693;SDS011;7947;48.834;9.132;2024-03-23T16:17:17;2.53;;;0.47;;
15693;SDS011;7947;48.834;9.132;2024-03-23T16:20:18;3.43;;;0.77;;
15693;SDS011;7947;48.834;9.132;2024-03-23T16:23:23;1.67;;;0.50;;
15693;SDS011;7947;48.834;9.132;2024-03-23T16:26:25;1.53;;;0.67;;
15693;SDS011;7947;48.834;9.132;2024-03-23T16:29:27;1.80;;;0.60;;
15693;SDS011;7947;48.834;9.132;2024-03-23T16:32:27;2.80;;;0.80;;
15693;SDS011;7947;48.834;9.132;2024-03-23T16:35:32;0.70;;;0.57;;
15693;SDS011;7947;48.834;9.132;2024-03-23T16:38:34;2.60;;;0.50;;
15693;SDS011;7947;48.834;9.132;2024-03-23T16:41:37;1.77;;;0.63;;
15693;SDS011;7947;48.834;9.132;2024-03-23T16:44:39;0.70;;;0.50;;
15693;SDS011;7947;48.834;9.132;2024-03-23T16:47:40;0.73;;;0.40;;
15693;SDS011;7947;48.834;9.132;2024-03-23T16:50:42;1.47;;;0.60;;
15693;SDS011;7947;48.834;9.132;2024-03-23T16:53:44;0.20;;;0.20;;
15693;SDS011;7947;48.834;9.132;2024-03-23T16:56:46;1.53;;;0.50;;
15693;SDS011;7947;48.834;9.132;2024-03-23T16:59:47;1.03;;;0.50;;
15693;SDS011;7947;48.834;9.132;2024-03-23T17:02:49;4.37;;;0.80;;
15693;SDS011;7947;48.834;9.132;2024-03-23T17:05:50;1.13;;;0.50;;
15693;SDS011;7947;48.834;9.132;2024-03-23T17:08:53;0.40;;;0.40;;
15693;SDS011;7947;48.834;9.132;2024-03-23T17:11:54;0.70;;;0.50;;
15693;SDS011;7947;48.834;9.132;2024-03-23T17:14:56;1.17;;;0.40;;
15693;SDS011;7947;48.834;9.132;2024-03-23T17:17:57;0.53;;;0.43;;
15693;SDS011;7947;48.834;9.132;2024-03-23T17:20:59;1.57;;;0.67;;
15693;SDS011;7947;48.834;9.132;2024-03-23T17:24:01;1.70;;;0.50;;
15693;SDS011;7947;48.834;9.132;2024-03-23T17:27:04;1.97;;;0.67;;
15693;SDS011;7947;48.834;9.132;2024-03-23T17:30:05;1.80;;;0.67;;
15693;SDS011;7947;48.834;9.132;2024-03-23T17:33:08;1.40;;;0.60;;
15693;SDS011;7947;48.834;9.132;2024-03-23T17:36:09;0.73;;;0.60;;
15693;SDS011;7947;48.834;9.132;2024-03-23T17:39:12;2.17;;;1.00;;
15693;SDS011;7947;48.834;9.132;2024-03-23T17:42:14;1.70;;;0.83;;
15693;SDS011;7947;48.834;9.132;2024-03-23T17:45:16;1.70;;;0.90;;
15693;SDS011;7947;48.834;9.132;2024-03-23T17:48:18;0.40;;;0.30;;
15693;SDS011;7947;48.834;9.132;2024-03-23T17:51:20;0.83;;;0.40;;
15693;SDS011;7947;48.834;9.132;2024-03-23T17:54:22;2.10;;;0.53;;
15693;SDS011;7947;48.834;9.132;2024-03-23T17:57:24;0.80;;;0.40;;
15693;SDS011;7947;48.834;9.132;2024-03-23T18:00:26;1.03;;;0.50;;
15693;SDS011;7947;48.834;9.132;2024-03-23T18:03:27;1.40;;;1.03;;
15693;SDS011;7947;48.834;9.132;2024-03-23T18:06:28;0.60;;;0.40;;
15693;SDS011;7947;48.834;9.132;2024-03-23T18:09:32;1.23;;;0.70;;
15693;SDS011;7947;48.834;9.132;2024-03-23T18:12:32;0.30;;;0.27;;
15693;SDS011;7947;48.834;9.132;2024-03-23T18:15:34;0.50;;;0.40;;
15693;SDS011;7947;48.834;9.132;2024-03-23T18:18:35;1.03;;;0.53;;
15693;SDS011;7947;48.834;9.132;2024-03-23T18:21:37;1.13;;;0.87;;
15693;SDS011;7947;48.834;9.132;2024-03-23T18:24:39;1.30;;;0.67;;
15693;SDS011;7947;48.834;9.132;2024-03-23T18:27:42;1.40;;;0.90;;
15693;SDS011;7947;48.834;9.132;2024-03-23T18:30:43;1.37;;;1.07;;
15693;SDS011;7947;48.834;9.132;2024-03-23T18:33:45;1.03;;;0.57;;
15693;SDS011;7947;48.834;9.132;2024-03-23T18:36:47;1.97;;;1.40;;
15693;SDS011;7947;48.834;9.132;2024-03-23T18:39:49;1.10;;;0.87;;
15693;SDS011;7947;48.834;9.132;2024-03-23T18:42:51;0.70;;;0.70;;
15693;SDS011;7947;48.834;9.132;2024-03-23T18:45:53;2.23;;;0.70;;
15693;SDS011;7947;48.834;9.132;2024-03-23T18:48:54;1.30;;;0.90;;
15693;SDS011;7947;48.834;9.132;2024-03-23T18:51:55;2.37;;;0.60;;
15693;SDS011;7947;48.834;9.132;2024-03-23T18:54:58;2.93;;;0.47;;
15693;SDS011;7947;48.834;9.132;2024-03-23T18:58:00;1.30;;;0.33;;
15693;SDS011;7947;48.834;9.132;2024-03-23T19:01:02;0.93;;;0.60;;
15693;SDS011;7947;48.834;9.132;2024-03-23T19:04:05;1.80;;;0.70;;
15693;SDS011;7947;48.834;9.132;2024-03-23T19:07:07;1.20;;;0.80;;
15693;SDS011;7947;48.834;9.132;2024-03-23T19:10:10;0.90;;;0.90;;
15693;SDS011;7947;48.834;9.132;2024-03-23T19:13:11;1.93;;;0.90;;
15693;SDS011;7947;48.834;9.132;2024-03-23T19:16:13;1.53;;;0.73;;
15693;SDS011;7947;48.834;9.132;2024-03-23T19:19:16;4.17;;;1.00;;
15693;SDS011;7947;48.834;9.132;2024-03-23T19:22:17;3.90;;;1.70;;
15693;SDS011;7947;48.834;9.132;2024-03-23T19:25:20;1.97;;;1.13;;
15693;SDS011;7947;48.834;9.132;2024-03-23T19:28:21;1.37;;;0.93;;
15693;SDS011;7947;48.834;9.132;2024-03-23T19:31:24;3.07;;;0.90;;
15693;SDS011;7947;48.834;9.132;2024-03-23T19:34:25;0.93;;;0.67;;